createdAt,value
2019-04-26T00:01:50.432Z,5.00
2019-04-26T00:04:16.742Z,5.73
2019-04-26T00:06:43.759Z,6.07
2019-04-26T00:09:19.611Z,6.50
2019-04-26T00:11:47.727Z,5.07
2019-04-26T00:14:16.265Z,7.63
2019-04-26T00:16:44.401Z,8.27
2019-04-26T00:19:11.124Z,6.27
2019-04-26T00:21:38.295Z,6.17
2019-04-26T00:24:04.751Z,5.83
2019-04-26T00:26:31.161Z,5.00
2019-04-26T00:28:57.458Z,7.57
2019-04-26T00:31:23.714Z,5.70
2019-04-26T00:33:49.923Z,9.67
2019-04-26T00:36:16.652Z,10.17
2019-04-26T00:38:42.891Z,6.90
2019-04-26T00:41:09.735Z,8.43
2019-04-26T00:43:36.249Z,10.47
2019-04-26T00:46:02.706Z,6.13
2019-04-26T00:48:30.830Z,6.00
2019-04-26T00:50:57.356Z,7.20
2019-04-26T00:53:27.335Z,5.83
2019-04-26T00:55:53.946Z,5.80
2019-04-26T00:58:22.280Z,7.47
2019-04-26T01:00:48.979Z,10.17
2019-04-26T01:03:18.650Z,7.07
2019-04-26T01:05:44.832Z,6.63
2019-04-26T01:08:11.065Z,5.80
2019-04-26T01:10:37.168Z,8.97
2019-04-26T01:13:03.485Z,9.83
2019-04-26T01:15:29.737Z,7.13
2019-04-26T01:17:55.860Z,9.83
2019-04-26T01:20:24.702Z,8.03
2019-04-26T01:22:54.506Z,7.50
2019-04-26T01:25:39.506Z,7.90
2019-04-26T01:28:09.466Z,7.43
2019-04-26T01:30:36.277Z,10.10
2019-04-26T01:33:02.669Z,8.30
2019-04-26T01:35:29.081Z,7.37
2019-04-26T01:37:56.587Z,10.07
2019-04-26T01:40:24.829Z,8.00
2019-04-26T01:42:53.313Z,7.37
2019-04-26T01:45:25.787Z,8.80
2019-04-26T01:47:55.875Z,10.10
2019-04-26T01:50:25.842Z,8.33
2019-04-26T01:52:52.265Z,8.83
2019-04-26T01:55:18.711Z,9.30
2019-04-26T01:57:44.942Z,11.13
2019-04-26T02:00:29.597Z,8.50
2019-04-26T02:02:57.720Z,9.07
2019-04-26T02:05:25.942Z,9.43
2019-04-26T02:07:52.459Z,11.93
2019-04-26T02:10:22.449Z,8.70
2019-04-26T02:12:51.036Z,9.00
2019-04-26T02:15:19.975Z,10.03
2019-04-26T02:17:47.586Z,11.53
2019-04-26T02:20:33.952Z,10.27
2019-04-26T02:23:02.070Z,12.30
2019-04-26T02:25:28.400Z,8.73
2019-04-26T02:27:54.633Z,12.20
2019-04-26T02:30:20.973Z,14.83
2019-04-26T02:32:47.678Z,10.77
2019-04-26T02:35:13.907Z,11.80
2019-04-26T02:37:40.403Z,11.07
2019-04-26T02:40:12.989Z,14.00
2019-04-26T02:42:41.458Z,15.40
2019-04-26T02:45:22.594Z,11.20
2019-04-26T02:47:54.449Z,11.43
2019-04-26T02:50:25.174Z,12.27
2019-04-26T02:53:14.770Z,13.23
2019-04-26T02:56:04.137Z,13.60
2019-04-26T02:58:35.932Z,15.03
2019-04-26T03:01:02.369Z,12.03
2019-04-26T03:03:30.564Z,12.40
2019-04-26T03:05:57.573Z,11.87
2019-04-26T03:08:25.293Z,10.83
2019-04-26T03:10:55.301Z,10.87
2019-04-26T03:13:27.153Z,11.50
2019-04-26T03:15:55.580Z,13.23
2019-04-26T03:18:31.689Z,11.17
2019-04-26T03:21:01.999Z,12.17
2019-04-26T03:23:57.008Z,12.77
2019-04-26T03:26:28.014Z,13.47
2019-04-26T03:29:16.299Z,10.47
2019-04-26T03:32:05.778Z,10.60
2019-04-26T03:34:52.951Z,13.30
2019-04-26T03:37:23.098Z,12.43
2019-04-26T03:40:30.601Z,11.63
2019-04-26T03:43:15.758Z,11.17
2019-04-26T03:45:54.755Z,11.57
2019-04-26T03:48:35.523Z,13.80
2019-04-26T03:51:14.855Z,11.83
2019-04-26T03:53:47.533Z,15.93
2019-04-26T03:56:28.439Z,13.27
2019-04-26T03:59:21.526Z,16.07
2019-04-26T04:01:56.216Z,12.27
2019-04-26T04:04:36.939Z,12.07
2019-04-26T04:07:05.966Z,13.00
2019-04-26T04:09:35.851Z,13.03
2019-04-26T04:12:26.983Z,10.10
2019-04-26T04:15:05.807Z,11.90
2019-04-26T04:17:49.514Z,13.97
2019-04-26T04:20:28.698Z,13.83
2019-04-26T04:22:58.747Z,11.03
2019-04-26T04:25:31.494Z,10.87
2019-04-26T04:28:07.531Z,12.40
2019-04-26T04:30:56.972Z,10.40
2019-04-26T04:33:30.137Z,10.93
2019-04-26T04:36:00.152Z,9.80
2019-04-26T04:39:12.472Z,13.07
2019-04-26T04:41:49.429Z,8.90
2019-04-26T04:44:33.259Z,10.50
2019-04-26T04:47:23.566Z,11.20
2019-04-26T04:49:56.439Z,9.70
2019-04-26T04:52:32.428Z,8.40
2019-04-26T04:55:35.639Z,9.57
2019-04-26T04:58:05.553Z,7.70
2019-04-26T05:01:04.674Z,8.07
2019-04-26T05:03:49.575Z,15.30
2019-04-26T05:06:24.194Z,8.40
2019-04-26T05:08:54.120Z,13.87
2019-04-26T05:11:24.174Z,9.00
2019-04-26T05:14:27.271Z,9.60
2019-04-26T05:17:15.145Z,9.97
2019-04-26T05:20:09.315Z,8.00
2019-04-26T05:22:39.369Z,9.97
2019-04-26T05:25:40.439Z,11.93
2019-04-26T05:28:28.901Z,11.10
2019-04-26T05:31:12.375Z,8.73
2019-04-26T05:33:46.134Z,14.57
2019-04-26T05:36:23.894Z,9.00
2019-04-26T05:38:59.877Z,10.57
2019-04-26T05:41:37.584Z,8.63
2019-04-26T05:44:30.698Z,14.57
2019-04-26T05:47:38.392Z,14.17
2019-04-26T05:50:46.503Z,10.67
2019-04-26T05:53:21.457Z,14.87
2019-04-26T05:56:11.387Z,9.77
2019-04-26T05:58:44.404Z,13.50
2019-04-26T06:01:43.567Z,13.17
2019-04-26T06:04:39.790Z,13.77
2019-04-26T06:07:23.701Z,11.37
2019-04-26T06:10:16.648Z,9.73
2019-04-26T06:13:08.233Z,10.37
2019-04-26T06:15:46.205Z,11.93
2019-04-26T06:18:35.410Z,11.07
2019-04-26T06:21:08.148Z,9.07
2019-04-26T06:24:03.524Z,16.50
2019-04-26T06:26:47.152Z,14.47
2019-04-26T06:29:25.500Z,10.23
2019-04-26T06:32:04.710Z,11.17
2019-04-26T06:34:46.592Z,12.53
2019-04-26T06:37:30.391Z,7.77
2019-04-26T06:40:08.978Z,10.17
2019-04-26T06:43:03.026Z,16.00
2019-04-26T06:45:37.634Z,13.80
2019-04-26T06:48:31.381Z,11.90
2019-04-26T06:51:25.046Z,9.63
2019-04-26T06:54:03.538Z,8.40
2019-04-26T06:57:09.616Z,11.67
2019-04-26T06:59:40.356Z,11.70
2019-04-26T07:02:32.772Z,10.80
2019-04-26T07:05:15.309Z,8.27
2019-04-26T07:07:51.224Z,10.50
2019-04-26T07:10:21.263Z,9.13
2019-04-26T07:13:37.046Z,9.67
2019-04-26T07:16:23.499Z,8.27
2019-04-26T07:19:05.593Z,11.07
2019-04-26T07:22:12.117Z,11.80
2019-04-26T07:25:12.762Z,10.50
2019-04-26T07:27:48.803Z,9.87
2019-04-26T07:30:46.992Z,7.93
2019-04-26T07:33:25.908Z,10.40
2019-04-26T07:36:11.938Z,14.43
2019-04-26T07:39:14.501Z,8.57
2019-04-26T07:42:11.505Z,10.93
2019-04-26T07:45:30.409Z,6.83
2019-04-26T07:48:18.488Z,8.53
2019-04-26T07:51:11.589Z,8.50
2019-04-26T07:53:44.236Z,12.17
2019-04-26T07:56:29.333Z,11.23
2019-04-26T07:59:21.684Z,7.70
2019-04-26T08:02:11.183Z,8.30
2019-04-26T08:04:41.208Z,9.40
2019-04-26T08:07:19.998Z,11.57
2019-04-26T08:09:59.533Z,8.67
2019-04-26T08:12:21.166Z,5.87
2019-04-26T08:14:53.089Z,10.20
2019-04-26T08:17:24.930Z,6.60
2019-04-26T08:20:14.051Z,11.77
2019-04-26T08:22:44.402Z,14.10
2019-04-26T08:25:12.465Z,8.37
2019-04-26T08:27:40.736Z,7.07
2019-04-26T08:30:14.490Z,9.30
2019-04-26T08:32:42.872Z,12.00
2019-04-26T08:35:18.978Z,11.83
2019-04-26T08:37:51.992Z,8.33
2019-04-26T08:40:29.392Z,12.17
2019-04-26T08:42:53.305Z,7.03
2019-04-26T08:45:44.112Z,9.60
2019-04-26T08:48:31.552Z,7.27
2019-04-26T08:51:01.534Z,6.53
2019-04-26T08:53:30.755Z,7.57
2019-04-26T08:55:59.665Z,5.80
2019-04-26T08:58:29.404Z,7.13
2019-04-26T09:01:04.012Z,6.80
2019-04-26T09:03:35.444Z,6.00
2019-04-26T09:06:14.072Z,7.03
2019-04-26T09:08:43.563Z,8.33
2019-04-26T09:11:22.772Z,9.70
2019-04-26T09:13:43.845Z,6.00
2019-04-26T09:16:13.172Z,7.60
2019-04-26T09:18:43.527Z,5.77
2019-04-26T09:21:07.506Z,6.73
2019-04-26T09:23:52.231Z,6.67
2019-04-26T09:26:23.283Z,7.20
2019-04-26T09:29:03.349Z,7.70
2019-04-26T09:31:43.278Z,9.77
2019-04-26T09:34:20.595Z,6.43
2019-04-26T09:36:46.843Z,9.33
2019-04-26T09:39:13.743Z,5.40
2019-04-26T09:41:40.179Z,7.60
2019-04-26T09:44:24.577Z,8.23
2019-04-26T09:46:54.274Z,8.37
2019-04-26T09:49:25.288Z,7.70
2019-04-26T09:51:51.624Z,8.00
2019-04-26T09:54:17.870Z,12.97
2019-04-26T09:56:44.076Z,5.67
2019-04-26T09:59:10.178Z,4.50
2019-04-26T10:01:36.421Z,6.40
2019-04-26T10:04:02.733Z,5.87
2019-04-26T10:06:29.727Z,8.23
2019-04-26T10:08:57.090Z,4.60
2019-04-26T10:11:25.216Z,4.13
2019-04-26T10:13:56.243Z,8.63
2019-04-26T10:16:42.215Z,5.20
2019-04-26T10:19:09.372Z,8.23
2019-04-26T10:21:35.632Z,5.63
2019-04-26T10:24:01.959Z,10.57
2019-04-26T10:26:29.832Z,4.27
2019-04-26T10:28:56.167Z,5.13
2019-04-26T10:31:22.300Z,4.63
2019-04-26T10:33:48.525Z,10.53
2019-04-26T10:36:14.773Z,7.10
2019-04-26T10:38:41.162Z,3.63
2019-04-26T10:41:07.463Z,11.87
2019-04-26T10:43:33.672Z,5.67
2019-04-26T10:45:59.812Z,9.30
2019-04-26T10:48:26.056Z,9.60
2019-04-26T10:50:52.176Z,5.83
2019-04-26T10:53:32.146Z,7.23
2019-04-26T10:56:09.017Z,12.77
2019-04-26T10:58:37.827Z,7.50
2019-04-26T11:01:12.042Z,11.70
2019-04-26T11:03:38.249Z,6.63
2019-04-26T11:06:04.511Z,6.03
2019-04-26T11:08:30.849Z,5.67
2019-04-26T11:10:57.776Z,10.23
2019-04-26T11:13:24.120Z,8.43
2019-04-26T11:15:50.274Z,9.07
2019-04-26T11:18:19.892Z,7.83
2019-04-26T11:20:45.850Z,8.23
2019-04-26T11:23:12.935Z,9.13
2019-04-26T11:25:39.132Z,5.87
2019-04-26T11:28:05.415Z,7.50
2019-04-26T11:30:31.749Z,10.47
2019-04-26T11:32:57.969Z,11.80
2019-04-26T11:35:24.220Z,8.03
2019-04-26T11:37:54.658Z,8.60
2019-04-26T11:40:18.648Z,10.17
2019-04-26T11:42:45.656Z,8.67
2019-04-26T11:45:14.578Z,10.77
2019-04-26T11:47:54.236Z,4.93
2019-04-26T11:50:12.554Z,8.97
2019-04-26T11:52:37.438Z,5.47
2019-04-26T11:55:04.695Z,6.00
2019-04-26T11:57:30.845Z,9.70
2019-04-26T11:59:57.094Z,7.10
2019-04-26T12:02:23.495Z,8.17
2019-04-26T12:05:07.934Z,6.60
2019-04-26T12:07:36.072Z,7.13
2019-04-26T12:10:09.783Z,10.23
2019-04-26T12:12:34.651Z,8.43
2019-04-26T12:15:03.973Z,13.23
2019-04-26T12:17:31.232Z,6.57
2019-04-26T12:19:56.951Z,5.77
2019-04-26T12:22:23.143Z,4.70
2019-04-26T12:24:49.247Z,12.20
2019-04-26T12:27:15.458Z,9.03
2019-04-26T12:29:44.297Z,6.67
2019-04-26T12:32:09.649Z,7.43
2019-04-26T12:34:35.829Z,7.83
2019-04-26T12:37:02.240Z,6.17
2019-04-26T12:39:28.358Z,4.13
2019-04-26T12:41:54.514Z,5.07
2019-04-26T12:44:20.919Z,9.83
2019-04-26T12:46:50.637Z,5.03
2019-04-26T12:49:20.392Z,5.23
2019-04-26T12:51:47.335Z,3.90
2019-04-26T12:54:13.603Z,10.23
2019-04-26T12:56:39.981Z,6.63
2019-04-26T12:59:06.220Z,3.83
2019-04-26T13:01:32.523Z,5.30
2019-04-26T13:04:05.728Z,5.80
2019-04-26T13:06:34.142Z,4.63
2019-04-26T13:09:00.368Z,4.93
2019-04-26T13:11:28.437Z,15.07
2019-04-26T13:14:05.740Z,5.17
2019-04-26T13:16:40.004Z,11.87
2019-04-26T13:19:06.109Z,24.00
2019-04-26T13:21:33.081Z,4.77
2019-04-26T13:24:04.333Z,4.97
2019-04-26T13:26:30.270Z,7.27
2019-04-26T13:28:57.411Z,10.03
2019-04-26T13:31:31.148Z,9.97
2019-04-26T13:33:52.452Z,5.37
2019-04-26T13:36:18.596Z,7.40
2019-04-26T13:38:45.198Z,4.30
2019-04-26T13:41:11.470Z,4.47
2019-04-26T13:43:37.678Z,5.03
2019-04-26T13:46:11.833Z,4.63
2019-04-26T13:48:43.678Z,2.10
2019-04-26T13:51:09.821Z,3.90
2019-04-26T13:53:36.055Z,2.50
2019-04-26T13:56:03.354Z,1.20
2019-04-26T13:58:30.380Z,7.03
2019-04-26T14:03:31.747Z,2.87
2019-04-26T14:05:56.809Z,6.70
2019-04-26T14:08:23.040Z,4.23
2019-04-26T14:10:49.740Z,6.30
2019-04-26T14:13:20.833Z,5.60
2019-04-26T14:15:48.662Z,6.53
2019-04-26T14:18:13.521Z,4.13
2019-04-26T14:20:39.913Z,7.97
2019-04-26T14:23:23.238Z,7.80
2019-04-26T14:25:55.656Z,7.00
2019-04-26T14:28:23.861Z,6.97
2019-04-26T14:30:51.072Z,6.07
2019-04-26T14:33:17.410Z,5.90
2019-04-26T14:35:46.230Z,6.03
2019-04-26T14:38:11.756Z,4.90
2019-04-26T14:40:39.266Z,5.23
2019-04-26T14:43:07.222Z,5.53
2019-04-26T14:45:36.355Z,4.23
2019-04-26T14:48:04.086Z,6.00
2019-04-26T14:50:32.134Z,4.73
2019-04-26T14:52:58.331Z,7.70
2019-04-26T14:55:26.254Z,7.20
2019-04-26T14:57:54.018Z,3.60
2019-04-26T15:00:31.128Z,8.20
2019-04-26T15:03:03.249Z,4.87
2019-04-26T15:05:46.557Z,6.40
2019-04-26T15:08:13.358Z,3.33
2019-04-26T15:10:44.358Z,3.13
2019-04-26T15:13:17.027Z,5.43
2019-04-26T15:15:35.870Z,4.43
2019-04-26T15:18:02.996Z,4.23
2019-04-26T15:20:29.223Z,2.40
2019-04-26T15:22:55.457Z,5.60
2019-04-26T15:25:21.576Z,4.77
2019-04-26T15:27:48.012Z,5.33
2019-04-26T15:30:14.435Z,2.50
2019-04-26T15:32:40.638Z,3.70
2019-04-26T15:35:06.880Z,4.77
2019-04-26T15:37:32.981Z,2.07
2019-04-26T15:40:02.371Z,1.83
2019-04-26T15:42:59.004Z,3.90
2019-04-26T15:45:25.124Z,3.00
2019-04-26T15:47:53.190Z,0.87
2019-04-26T15:50:41.011Z,2.13
2019-04-26T15:53:06.630Z,0.83
2019-04-26T15:55:40.009Z,5.37
2019-04-26T15:58:08.216Z,1.23
2019-04-26T16:00:32.686Z,1.27
2019-04-26T16:03:03.884Z,0.87
2019-04-26T16:05:29.471Z,1.70
2019-04-26T16:07:57.376Z,2.93
2019-04-26T16:10:25.831Z,4.10
2019-04-26T16:12:52.442Z,1.20
2019-04-26T16:15:18.688Z,1.20
2019-04-26T16:17:45.008Z,1.33
2019-04-26T16:20:11.890Z,0.90
2019-04-26T16:22:39.547Z,2.57
2019-04-26T16:25:05.972Z,1.60
2019-04-26T16:27:34.420Z,1.80
2019-04-26T16:30:07.734Z,2.63
2019-04-26T16:32:38.623Z,3.17
2019-04-26T16:35:05.689Z,1.37
2019-04-26T16:37:33.116Z,2.93
2019-04-26T16:39:59.961Z,2.50
2019-04-26T16:42:26.267Z,1.03
2019-04-26T16:44:53.139Z,2.57
2019-04-26T16:47:20.448Z,2.83
2019-04-26T16:49:46.748Z,1.70
2019-04-26T16:52:14.136Z,2.90
2019-04-26T16:54:40.614Z,3.93
2019-04-26T16:57:11.466Z,2.27
2019-04-26T16:59:36.532Z,3.47
2019-04-26T17:02:03.242Z,2.67
2019-04-26T17:04:32.429Z,1.30
2019-04-26T17:07:01.748Z,1.90
2019-04-26T17:09:28.755Z,2.20
2019-04-26T17:11:53.828Z,0.97
2019-04-26T17:14:22.346Z,2.63
2019-04-26T17:16:48.111Z,2.30
2019-04-26T17:19:14.216Z,10.67
2019-04-26T17:21:45.252Z,8.50
2019-04-26T17:24:19.119Z,7.20
2019-04-26T17:26:50.112Z,9.07
2019-04-26T17:29:16.413Z,5.67
2019-04-26T17:31:43.142Z,8.10
2019-04-26T17:34:09.505Z,4.70
2019-04-26T17:36:35.757Z,3.63
2019-04-26T17:39:04.095Z,2.00
2019-04-26T17:41:33.322Z,2.50
2019-04-26T17:44:08.469Z,3.17
2019-04-26T17:46:27.586Z,2.67
2019-04-26T17:48:53.715Z,2.67
2019-04-26T17:51:22.934Z,3.07
2019-04-26T17:53:48.926Z,3.90
2019-04-26T17:56:15.929Z,6.07
2019-04-26T17:58:51.539Z,6.03
2019-04-26T18:01:11.880Z,4.07
2019-04-26T18:03:38.465Z,4.07
2019-04-26T18:06:04.678Z,5.97
2019-04-26T18:08:40.597Z,6.43
2019-04-26T18:11:00.819Z,4.03
2019-04-26T18:13:27.086Z,4.07
2019-04-26T18:15:53.219Z,8.30
2019-04-26T18:18:37.917Z,7.23
2019-04-26T18:21:22.791Z,6.13
2019-04-26T18:23:54.673Z,8.67
2019-04-26T18:26:21.498Z,6.47
2019-04-26T18:28:51.507Z,9.47
2019-04-26T18:31:17.829Z,9.17
2019-04-26T18:33:43.093Z,6.97
2019-04-26T18:36:09.314Z,11.07
2019-04-26T18:38:35.698Z,12.30
2019-04-26T18:41:03.532Z,11.93
2019-04-26T18:43:32.793Z,8.87
2019-04-26T18:46:09.900Z,8.97
2019-04-26T18:48:40.685Z,9.47
2019-04-26T18:51:07.584Z,7.37
2019-04-26T18:53:36.968Z,8.60
2019-04-26T18:56:03.471Z,10.23
2019-04-26T18:58:34.747Z,10.90
2019-04-26T19:01:01.598Z,8.37
2019-04-26T19:03:30.102Z,12.27
2019-04-26T19:05:58.361Z,10.23
2019-04-26T19:08:27.338Z,7.77
2019-04-26T19:11:00.426Z,12.07
2019-04-26T19:13:26.684Z,7.43
2019-04-26T19:15:56.711Z,13.10
2019-04-26T19:18:37.902Z,8.27
2019-04-26T19:21:06.878Z,6.60
2019-04-26T19:23:33.133Z,6.97
2019-04-26T19:25:59.435Z,4.60
2019-04-26T19:28:25.649Z,8.87
2019-04-26T19:30:53.214Z,5.37
2019-04-26T19:33:19.697Z,9.67
2019-04-26T19:35:47.502Z,5.47
2019-04-26T19:38:14.844Z,7.83
2019-04-26T19:40:46.400Z,8.47
2019-04-26T19:43:09.434Z,6.10
2019-04-26T19:45:39.522Z,7.40
2019-04-26T19:48:08.080Z,7.80
2019-04-26T19:50:52.807Z,6.17
2019-04-26T19:53:33.155Z,7.47
2019-04-26T19:56:04.315Z,8.27
2019-04-26T19:58:32.454Z,7.67
2019-04-26T20:00:59.685Z,6.97
2019-04-26T20:03:25.906Z,6.70
2019-04-26T20:05:52.956Z,8.83
2019-04-26T20:08:19.180Z,7.70
2019-04-26T20:10:45.895Z,10.87
2019-04-26T20:13:15.090Z,6.83
2019-04-26T20:15:41.893Z,8.53
2019-04-26T20:18:08.333Z,4.83
2019-04-26T20:20:36.262Z,6.30
2019-04-26T20:23:05.851Z,10.50
2019-04-26T20:25:31.114Z,5.90
2019-04-26T20:27:59.895Z,8.57
2019-04-26T20:30:27.828Z,10.17
2019-04-26T20:32:56.446Z,7.03
2019-04-26T20:35:26.526Z,6.50
2019-04-26T20:37:52.268Z,6.43
2019-04-26T20:40:22.633Z,7.93
2019-04-26T20:42:46.597Z,9.30
2019-04-26T20:45:16.581Z,9.80
2019-04-26T20:47:41.675Z,5.30
2019-04-26T20:50:08.333Z,7.57
2019-04-26T20:52:34.480Z,8.47
2019-04-26T20:55:00.611Z,8.83
2019-04-26T20:57:31.359Z,7.77
2019-04-26T21:00:01.588Z,7.33
2019-04-26T21:02:24.717Z,13.53
2019-04-26T21:04:51.489Z,8.20
2019-04-26T21:07:17.778Z,9.73
2019-04-26T21:09:44.012Z,9.47
2019-04-26T21:12:17.045Z,8.90
2019-04-26T21:14:44.397Z,9.60
2019-04-26T21:17:06.571Z,7.23
2019-04-26T21:19:32.833Z,10.00
2019-04-26T21:21:59.443Z,10.30
2019-04-26T21:24:27.593Z,15.03
2019-04-26T21:27:01.281Z,6.27
2019-04-26T21:29:45.837Z,12.10
2019-04-26T21:32:16.478Z,8.43
2019-04-26T21:34:46.434Z,11.67
2019-04-26T21:37:17.353Z,7.43
2019-04-26T21:39:48.657Z,10.67
2019-04-26T21:42:17.203Z,9.00
2019-04-26T21:44:44.675Z,8.50
2019-04-26T21:47:10.797Z,8.57
2019-04-26T21:49:38.122Z,8.77
2019-04-26T21:52:04.437Z,10.33
2019-04-26T21:54:30.883Z,15.83
2019-04-26T21:56:56.984Z,10.37
2019-04-26T21:59:24.413Z,10.77
2019-04-26T22:01:54.811Z,13.57
2019-04-26T22:04:19.508Z,7.70
2019-04-26T22:06:45.824Z,10.60
2019-04-26T22:09:19.418Z,8.90
2019-04-26T22:11:49.534Z,11.03
2019-04-26T22:14:20.222Z,11.37
2019-04-26T22:16:57.545Z,8.00
2019-04-26T22:19:40.772Z,7.43
2019-04-26T22:22:08.907Z,11.17
2019-04-26T22:24:39.999Z,16.87
2019-04-26T22:27:06.339Z,9.67
2019-04-26T22:29:33.381Z,13.87
2019-04-26T22:31:59.684Z,4.73
2019-04-26T22:34:25.914Z,9.63
2019-04-26T22:36:53.638Z,12.27
2019-04-26T22:39:19.953Z,11.97
2019-04-26T22:41:46.161Z,9.50
2019-04-26T22:44:14.319Z,9.90
2019-04-26T22:47:03.452Z,11.07
2019-04-26T22:49:27.058Z,13.43
2019-04-26T22:51:53.162Z,8.83
2019-04-26T22:54:19.265Z,11.30
2019-04-26T22:56:46.026Z,8.97
2019-04-26T22:59:13.935Z,8.63
2019-04-26T23:01:44.682Z,4.67
2019-04-26T23:04:08.500Z,13.10
2019-04-26T23:06:34.909Z,9.67
2019-04-26T23:09:01.043Z,9.13
2019-04-26T23:11:27.675Z,7.90
2019-04-26T23:14:11.513Z,11.00
2019-04-26T23:17:01.464Z,6.67
2019-04-26T23:19:33.460Z,8.70
2019-04-26T23:22:00.589Z,13.93
2019-04-26T23:24:26.716Z,9.63
2019-04-26T23:26:54.110Z,8.93
2019-04-26T23:29:20.377Z,15.77
2019-04-26T23:31:46.605Z,8.43
2019-04-26T23:34:14.254Z,8.20
2019-04-26T23:36:40.533Z,11.43
2019-04-26T23:39:07.714Z,12.63
2019-04-26T23:41:37.588Z,12.17
2019-04-26T23:44:06.598Z,5.03
2019-04-26T23:46:33.020Z,12.60
2019-04-26T23:48:59.244Z,13.90
2019-04-26T23:51:26.218Z,12.77
2019-04-26T23:53:54.992Z,13.60
2019-04-26T23:56:23.535Z,13.00
2019-04-26T23:58:48.559Z,10.03
